createdAt,value
2017-04-08T00:00:11.990Z,67.3
2017-04-08T00:00:38.069Z,67.88
2017-04-08T00:01:04.177Z,67.49
2017-04-08T00:01:30.283Z,67.59
2017-04-08T00:01:56.375Z,67.59
2017-04-08T00:02:22.461Z,67.3
2017-04-08T00:02:48.542Z,67.4
2017-04-08T00:03:14.647Z,67.69
2017-04-08T00:03:40.728Z,67.49
2017-04-08T00:04:06.812Z,67.97
2017-04-08T00:04:32.892Z,68.26
2017-04-08T00:04:59.005Z,68.16
2017-04-08T00:05:25.087Z,68.45
2017-04-08T00:05:51.192Z,68.45
2017-04-08T00:06:17.271Z,68.45
2017-04-08T00:06:43.376Z,68.16
2017-04-08T00:07:09.457Z,67.88
2017-04-08T00:07:35.539Z,68.16
2017-04-08T00:08:01.618Z,68.45
2017-04-08T00:08:27.722Z,68.45
2017-04-08T00:08:53.804Z,67.97
2017-04-08T00:09:19.887Z,68.07
2017-04-08T00:09:46.000Z,68.07
2017-04-08T00:10:12.089Z,68.35
2017-04-08T00:10:38.192Z,68.26
2017-04-08T00:11:04.345Z,67.97
2017-04-08T00:11:30.425Z,67.88
2017-04-08T00:11:56.511Z,67.78
2017-04-08T00:12:22.592Z,67.78
2017-04-08T00:12:48.720Z,68.07
2017-04-08T00:13:14.840Z,68.26
2017-04-08T00:13:40.931Z,68.26
2017-04-08T00:14:07.036Z,68.26
2017-04-08T00:14:33.137Z,68.45
2017-04-08T00:14:59.221Z,68.35
2017-04-08T00:15:25.327Z,68.45
2017-04-08T00:15:51.453Z,68.26
2017-04-08T00:16:17.578Z,68.35
2017-04-08T00:16:43.685Z,68.07
2017-04-08T00:17:09.826Z,68.26
2017-04-08T00:17:35.886Z,68.35
2017-04-08T00:18:01.993Z,68.55
2017-04-08T00:18:28.122Z,68.07
2017-04-08T00:18:54.273Z,68.07
2017-04-08T00:19:20.381Z,68.26
2017-04-08T00:19:46.598Z,68.26
2017-04-08T00:20:12.641Z,68.55
2017-04-08T00:20:38.734Z,68.74
2017-04-08T00:21:04.814Z,68.93
2017-04-08T00:21:30.921Z,68.84
2017-04-08T00:21:57.002Z,68.55
2017-04-08T00:22:23.107Z,69.02
2017-04-08T00:22:49.191Z,69.02
2017-04-08T00:23:15.300Z,69.02
2017-04-08T00:23:41.402Z,69.21
2017-04-08T00:24:07.486Z,69.12
2017-04-08T00:24:33.567Z,69.02
2017-04-08T00:24:59.672Z,69.02
2017-04-08T00:25:25.751Z,68.93
2017-04-08T00:25:51.854Z,69.6
2017-04-08T00:26:17.938Z,69.89
2017-04-08T00:26:44.042Z,69.41
2017-04-08T00:27:10.161Z,69.7
2017-04-08T00:27:36.265Z,69.98
2017-04-08T00:28:02.347Z,69.89
2017-04-08T00:28:28.449Z,69.89
2017-04-08T00:28:54.554Z,69.85
2017-04-08T00:29:20.656Z,69.66
2017-04-08T00:29:46.738Z,69.47
2017-04-08T00:30:12.843Z,70.04
2017-04-08T00:30:38.925Z,70.23
2017-04-08T00:31:05.007Z,69.76
2017-04-08T00:31:31.091Z,69.85
2017-04-08T00:31:57.330Z,70.14
2017-04-08T00:32:23.497Z,69.76
2017-04-08T00:32:49.604Z,69.85
2017-04-08T00:33:16.075Z,70.04
2017-04-08T00:33:42.904Z,70.52
2017-04-08T00:34:09.166Z,70.42
2017-04-08T00:34:35.225Z,70.71
2017-04-08T00:35:01.306Z,70.42
2017-04-08T00:35:27.386Z,70.71
2017-04-08T00:35:53.469Z,70.52
2017-04-08T00:36:19.563Z,70.42
2017-04-08T00:36:45.673Z,70.42
2017-04-08T00:37:11.749Z,70.71
2017-04-08T00:37:37.875Z,70.52
2017-04-08T00:38:04.001Z,71.19
2017-04-08T00:38:30.177Z,71.09
2017-04-08T00:38:56.305Z,70.52
2017-04-08T00:39:22.387Z,70.9
2017-04-08T00:39:48.518Z,70.61
2017-04-08T00:40:14.626Z,70.52
2017-04-08T00:40:40.731Z,70.61
2017-04-08T00:41:06.856Z,70.52
2017-04-08T00:41:32.958Z,71
2017-04-08T00:41:59.038Z,71.09
2017-04-08T00:42:25.142Z,70.52
2017-04-08T00:42:51.343Z,71
2017-04-08T00:43:17.435Z,70.52
2017-04-08T00:43:43.591Z,71
2017-04-08T00:44:09.711Z,70.81
2017-04-08T00:44:35.793Z,70.61
2017-04-08T00:45:01.875Z,70.71
2017-04-08T00:45:27.957Z,70.52
2017-04-08T00:45:54.064Z,70.52
2017-04-08T00:46:20.232Z,70.52
2017-04-08T00:46:46.353Z,70.52
2017-04-08T00:47:12.504Z,70.9
2017-04-08T00:47:38.631Z,71.09
2017-04-08T00:48:04.736Z,71.09
2017-04-08T00:48:30.977Z,71.09
2017-04-08T00:48:57.079Z,71
2017-04-08T00:49:23.227Z,70.52
2017-04-08T00:49:49.330Z,71
2017-04-08T00:50:15.459Z,71.28
2017-04-08T00:50:41.542Z,71.28
2017-04-08T00:51:07.623Z,71.67
2017-04-08T00:51:33.702Z,71.47
2017-04-08T00:51:59.819Z,71.38
2017-04-08T00:52:25.945Z,71.38
2017-04-08T00:52:52.072Z,70.9
2017-04-08T00:53:18.199Z,71.57
2017-04-08T00:53:44.331Z,71.09
2017-04-08T00:54:10.459Z,70.52
2017-04-08T00:54:36.567Z,70.71
2017-04-08T00:55:02.666Z,70.81
2017-04-08T00:55:28.770Z,71
2017-04-08T00:55:54.858Z,70.52
2017-04-08T00:56:20.943Z,71
2017-04-08T00:56:47.025Z,70.71
2017-04-08T00:57:13.108Z,71
2017-04-08T00:57:39.214Z,70.52
2017-04-08T00:58:05.340Z,71
2017-04-08T00:58:31.445Z,71.09
2017-04-08T00:58:57.576Z,70.52
2017-04-08T00:59:23.684Z,70.71
2017-04-08T00:59:49.814Z,70.52
2017-04-08T01:00:15.921Z,71
2017-04-08T01:00:42.001Z,70.52
2017-04-08T01:01:08.106Z,70.52
2017-04-08T01:01:34.210Z,70.52
2017-04-08T01:02:00.333Z,70.52
2017-04-08T01:02:26.414Z,70.52
2017-04-08T01:02:52.542Z,70.61
2017-04-08T01:03:18.678Z,70.9
2017-04-08T01:03:44.732Z,70.42
2017-04-08T01:04:10.860Z,70.46
2017-04-08T01:04:36.942Z,70.52
2017-04-08T01:05:03.104Z,70.46
2017-04-08T01:05:29.194Z,70.71
2017-04-08T01:05:55.277Z,71
2017-04-08T01:06:21.360Z,70.71
2017-04-08T01:06:47.465Z,70.52
2017-04-08T01:07:13.545Z,71.09
2017-04-08T01:07:39.651Z,71
2017-04-08T01:08:05.734Z,70.81
2017-04-08T01:08:31.866Z,70.71
2017-04-08T01:08:57.946Z,71
2017-04-08T01:09:24.048Z,71
2017-04-08T01:09:50.153Z,70.81
2017-04-08T01:10:16.237Z,70.84
2017-04-08T01:10:42.316Z,70.52
2017-04-08T01:11:08.420Z,70.52
2017-04-08T01:11:34.528Z,70.81
2017-04-08T01:12:00.631Z,70.61
2017-04-08T01:12:26.721Z,70.61
2017-04-08T01:12:52.848Z,71.19
2017-04-08T01:13:18.976Z,71.47
2017-04-08T01:13:45.056Z,71
2017-04-08T01:14:11.141Z,70.9
2017-04-08T01:14:37.248Z,71.19
2017-04-08T01:15:03.351Z,71
2017-04-08T01:15:29.478Z,71.19
2017-04-08T01:15:55.591Z,71.19
2017-04-08T01:16:21.669Z,71.67
2017-04-08T01:16:47.773Z,71.67
2017-04-08T01:17:13.857Z,70.9
2017-04-08T01:17:39.960Z,71.38
2017-04-08T01:18:06.061Z,71.38
2017-04-08T01:18:32.169Z,71.38
2017-04-08T01:18:58.323Z,71.38
2017-04-08T01:19:24.448Z,71.57
2017-04-08T01:19:50.554Z,71.67
2017-04-08T01:20:16.634Z,71.57
2017-04-08T01:20:42.718Z,72.05
2017-04-08T01:21:08.825Z,72.24
2017-04-08T01:21:34.931Z,72.33
2017-04-08T01:22:01.036Z,72.53
2017-04-08T01:22:27.141Z,72.53
2017-04-08T01:22:53.222Z,71.67
2017-04-08T01:23:19.327Z,72.62
2017-04-08T01:23:45.409Z,72.43
2017-04-08T01:24:11.489Z,72.24
2017-04-08T01:24:37.572Z,72.33
2017-04-08T01:25:03.653Z,72.43
2017-04-08T01:25:29.736Z,72.05
2017-04-08T01:25:55.815Z,72.43
2017-04-08T01:26:21.918Z,72.53
2017-04-08T01:26:48.000Z,72.05
2017-04-08T01:27:14.126Z,72.62
2017-04-08T01:27:40.212Z,72.24
2017-04-08T01:28:06.295Z,72.24
2017-04-08T01:28:32.379Z,72.81
2017-04-08T01:28:58.461Z,72.81
2017-04-08T01:29:24.543Z,73.1
2017-04-08T01:29:50.624Z,73.39
2017-04-08T01:30:16.706Z,72.81
2017-04-08T01:30:42.821Z,73.1
2017-04-08T01:31:08.920Z,73
2017-04-08T01:31:34.999Z,72.91
2017-04-08T01:32:01.083Z,73
2017-04-08T01:32:27.162Z,73.1
2017-04-08T01:32:53.243Z,72.78
2017-04-08T01:33:19.346Z,73.48
2017-04-08T01:33:45.426Z,73.29
2017-04-08T01:34:11.514Z,73.48
2017-04-08T01:34:37.617Z,72.91
2017-04-08T01:35:03.699Z,73
2017-04-08T01:35:29.782Z,72.53
2017-04-08T01:35:55.884Z,72.53
2017-04-08T01:36:21.990Z,72.62
2017-04-08T01:36:48.071Z,72.72
2017-04-08T01:37:14.177Z,72.72
2017-04-08T01:37:40.259Z,72.81
2017-04-08T01:38:06.340Z,72.72
2017-04-08T01:38:32.422Z,72.62
2017-04-08T01:38:58.523Z,72.72
2017-04-08T01:39:24.603Z,72.62
2017-04-08T01:39:50.694Z,72.91
2017-04-08T01:40:16.775Z,72.91
2017-04-08T01:40:42.856Z,72.81
2017-04-08T01:41:08.964Z,72.53
2017-04-08T01:41:35.067Z,72.91
2017-04-08T01:42:01.147Z,72.62
2017-04-08T01:42:27.251Z,72.72
2017-04-08T01:42:53.338Z,73.29
2017-04-08T01:43:19.446Z,72.53
2017-04-08T01:43:45.548Z,72.72
2017-04-08T01:44:11.630Z,72.62
2017-04-08T01:44:37.711Z,72.91
2017-04-08T01:45:03.791Z,73.39
2017-04-08T01:45:29.870Z,73.58
2017-04-08T01:45:55.951Z,73.39
2017-04-08T01:46:22.043Z,73
2017-04-08T01:46:48.121Z,73.39
2017-04-08T01:47:14.201Z,73.39
2017-04-08T01:47:40.284Z,73.48
2017-04-08T01:48:06.387Z,73.29
2017-04-08T01:48:32.492Z,73.29
2017-04-08T01:48:58.576Z,73.39
2017-04-08T01:49:24.680Z,73.48
2017-04-08T01:49:50.785Z,73.48
2017-04-08T01:50:16.893Z,73.19
2017-04-08T01:50:42.975Z,73.29
2017-04-08T01:51:09.057Z,73.19
2017-04-08T01:51:35.161Z,73.29
2017-04-08T01:52:01.266Z,73.19
2017-04-08T01:52:27.395Z,73.39
2017-04-08T01:52:53.498Z,73.19
2017-04-08T01:53:19.610Z,73.39
2017-04-08T01:53:45.688Z,73.54
2017-04-08T01:54:11.816Z,73.54
2017-04-08T01:54:37.940Z,73.83
2017-04-08T01:55:04.067Z,73.44
2017-04-08T01:55:30.171Z,73.58
2017-04-08T01:55:56.253Z,73.16
2017-04-08T01:56:22.338Z,73.19
2017-04-08T01:56:48.441Z,73
2017-04-08T01:57:14.522Z,73.1
2017-04-08T01:57:40.625Z,73.39
2017-04-08T01:58:06.778Z,73.19
2017-04-08T01:58:32.881Z,73.39
2017-04-08T01:58:59.031Z,73.39
2017-04-08T01:59:25.159Z,73.29
2017-04-08T01:59:51.264Z,73
2017-04-08T02:00:17.347Z,73.39
2017-04-08T02:00:43.452Z,73
2017-04-08T02:01:09.533Z,73.48
2017-04-08T02:01:35.615Z,73.1
2017-04-08T02:02:01.693Z,73.48
2017-04-08T02:02:27.778Z,73.54
2017-04-08T02:02:53.861Z,73.73
2017-04-08T02:03:20.012Z,74.11
2017-04-08T02:03:46.118Z,74.24
2017-04-08T02:04:12.198Z,73.77
2017-04-08T02:04:38.278Z,73.92
2017-04-08T02:05:04.360Z,74.05
2017-04-08T02:05:30.461Z,73.96
2017-04-08T02:05:56.543Z,74.02
2017-04-08T02:06:22.626Z,74.11
2017-04-08T02:06:48.705Z,74.05
2017-04-08T02:07:14.813Z,74.15
2017-04-08T02:07:40.940Z,74.15
2017-04-08T02:08:07.045Z,74.11
2017-04-08T02:08:33.130Z,73.73
2017-04-08T02:08:59.233Z,74.3
2017-04-08T02:09:25.359Z,74.05
2017-04-08T02:09:51.464Z,74.11
2017-04-08T02:10:17.569Z,74.21
2017-04-08T02:10:43.674Z,74.3
2017-04-08T02:11:09.800Z,74.21
2017-04-08T02:11:35.905Z,74.11
2017-04-08T02:12:02.011Z,74.34
2017-04-08T02:12:28.094Z,74.02
2017-04-08T02:12:54.198Z,73.86
2017-04-08T02:13:20.303Z,73.92
2017-04-08T02:13:46.456Z,73.29
2017-04-08T02:14:12.537Z,73.19
2017-04-08T02:14:38.618Z,73.29
2017-04-08T02:15:04.700Z,73.58
2017-04-08T02:15:30.781Z,73.58
2017-04-08T02:15:56.868Z,73.29
2017-04-08T02:16:22.948Z,72.81
2017-04-08T02:16:49.030Z,73.29
2017-04-08T02:17:15.111Z,73.39
2017-04-08T02:17:41.192Z,73.39
2017-04-08T02:18:07.294Z,73.39
2017-04-08T02:18:33.402Z,73.39
2017-04-08T02:18:59.505Z,73.39
2017-04-08T02:19:25.647Z,73.29
2017-04-08T02:19:51.726Z,73.29
2017-04-08T02:20:17.854Z,73.19
2017-04-08T02:20:43.934Z,73.29
2017-04-08T02:21:10.016Z,73.1
2017-04-08T02:21:36.142Z,73.07
2017-04-08T02:22:02.246Z,73.29
2017-04-08T02:22:28.349Z,73.1
2017-04-08T02:22:54.431Z,73.19
2017-04-08T02:23:20.515Z,73.1
2017-04-08T02:23:46.663Z,73.25
2017-04-08T02:24:12.789Z,73.39
2017-04-08T02:24:38.894Z,73.29
2017-04-08T02:25:05.000Z,73.29
2017-04-08T02:25:31.110Z,73.35
2017-04-08T02:25:57.190Z,73.63
2017-04-08T02:26:23.270Z,72.81
2017-04-08T02:26:49.374Z,73.39
2017-04-08T02:27:15.482Z,73.44
2017-04-08T02:27:41.589Z,73.25
2017-04-08T02:28:07.671Z,73.29
2017-04-08T02:28:33.823Z,73.29
2017-04-08T02:28:59.927Z,73.29
2017-04-08T02:29:26.079Z,73.35
2017-04-08T02:29:52.182Z,73.39
2017-04-08T02:30:18.311Z,73.39
2017-04-08T02:30:44.395Z,73.29
2017-04-08T02:31:10.476Z,73
2017-04-08T02:31:36.556Z,73.19
2017-04-08T02:32:02.638Z,73.25
2017-04-08T02:32:28.723Z,73.35
2017-04-08T02:32:54.828Z,73.29
2017-04-08T02:33:20.934Z,73
2017-04-08T02:33:47.060Z,73.73
2017-04-08T02:34:13.141Z,73.16
2017-04-08T02:34:39.244Z,73.25
2017-04-08T02:35:05.327Z,73.35
2017-04-08T02:35:31.409Z,73.25
2017-04-08T02:35:57.490Z,73.35
2017-04-08T02:36:23.574Z,73.35
2017-04-08T02:36:49.675Z,73.16
2017-04-08T02:37:15.756Z,72.97
2017-04-08T02:37:41.842Z,73.16
2017-04-08T02:38:07.918Z,73.25
2017-04-08T02:38:34.000Z,73.16
2017-04-08T02:39:00.085Z,73.16
2017-04-08T02:39:26.191Z,72.97
2017-04-08T02:39:52.272Z,73.35
2017-04-08T02:40:18.373Z,73.16
2017-04-08T02:40:44.456Z,72.97
2017-04-08T02:41:10.564Z,73.25
2017-04-08T02:41:36.643Z,73.44
2017-04-08T02:42:02.726Z,73.25
2017-04-08T02:42:28.807Z,73.35
2017-04-08T02:42:54.890Z,73.35
2017-04-08T02:43:20.972Z,73.44
2017-04-08T02:43:47.075Z,73.35
2017-04-08T02:44:13.156Z,73.25
2017-04-08T02:44:39.239Z,73.35
2017-04-08T02:45:05.319Z,73.16
2017-04-08T02:45:31.400Z,73.39
2017-04-08T02:45:57.483Z,73.19
2017-04-08T02:46:23.564Z,73.29
2017-04-08T02:46:49.669Z,73
2017-04-08T02:47:15.774Z,73.07
2017-04-08T02:47:41.856Z,73.39
2017-04-08T02:48:07.939Z,73.25
2017-04-08T02:48:34.042Z,73.77
2017-04-08T02:49:00.122Z,73.1
2017-04-08T02:49:26.202Z,72.81
2017-04-08T02:49:52.307Z,73
2017-04-08T02:50:18.386Z,73.1
2017-04-08T02:50:44.469Z,73.29
2017-04-08T02:51:10.599Z,73.29
2017-04-08T02:51:36.681Z,73.29
2017-04-08T02:52:02.761Z,73.07
2017-04-08T02:52:28.845Z,73.19
2017-04-08T02:52:54.930Z,73.1
2017-04-08T02:53:21.034Z,73.1
2017-04-08T02:53:47.137Z,73.16
2017-04-08T02:54:13.218Z,73.07
2017-04-08T02:54:39.322Z,73.35
2017-04-08T02:55:05.403Z,73.07
2017-04-08T02:55:31.483Z,73.35
2017-04-08T02:55:57.590Z,73.35
2017-04-08T02:56:23.673Z,73.35
2017-04-08T02:56:49.750Z,73.44
2017-04-08T02:57:15.855Z,73.25
2017-04-08T02:57:41.937Z,73.35
2017-04-08T02:58:08.017Z,72.87
2017-04-08T02:58:34.098Z,73.16
2017-04-08T02:59:00.183Z,73.25
2017-04-08T02:59:26.436Z,73.07
2017-04-08T02:59:52.518Z,73.44
2017-04-08T03:00:18.599Z,73.35
2017-04-08T03:00:44.679Z,73.44
2017-04-08T03:01:10.763Z,73.44
2017-04-08T03:01:36.867Z,72.97
2017-04-08T03:02:02.946Z,73.35
2017-04-08T03:02:29.050Z,73.35
2017-04-08T03:02:55.134Z,73.25
2017-04-08T03:03:21.224Z,73.63
2017-04-08T03:03:47.306Z,73.16
2017-04-08T03:04:13.387Z,73.16
2017-04-08T03:04:39.516Z,73.07
2017-04-08T03:05:05.598Z,73.16
2017-04-08T03:05:31.682Z,73.07
2017-04-08T03:05:57.765Z,73.07
2017-04-08T03:06:23.844Z,73.07
2017-04-08T03:06:49.925Z,72.97
2017-04-08T03:07:16.027Z,73.07
2017-04-08T03:07:42.108Z,73.07
2017-04-08T03:08:08.211Z,73.07
2017-04-08T03:08:34.317Z,73.07
2017-04-08T03:09:00.400Z,73.25
2017-04-08T03:09:26.503Z,73.25
2017-04-08T03:09:52.583Z,73.07
2017-04-08T03:10:18.720Z,73.25
2017-04-08T03:10:44.778Z,73.25
2017-04-08T03:11:10.858Z,73.25
2017-04-08T03:11:36.937Z,73.35
2017-04-08T03:12:03.043Z,73.35
2017-04-08T03:12:29.124Z,73.25
2017-04-08T03:12:55.225Z,73.16
2017-04-08T03:13:21.331Z,72.49
2017-04-08T03:13:47.412Z,72.78
2017-04-08T03:14:13.518Z,72.58
2017-04-08T03:14:39.619Z,72.68
2017-04-08T03:15:05.700Z,72.68
2017-04-08T03:15:31.783Z,73.16
2017-04-08T03:15:57.913Z,73.16
2017-04-08T03:16:23.996Z,73.25
2017-04-08T03:16:50.076Z,73.25
2017-04-08T03:17:16.156Z,73.07
2017-04-08T03:17:42.239Z,73.07
2017-04-08T03:18:08.342Z,73.35
2017-04-08T03:18:34.445Z,73.25
2017-04-08T03:19:00.528Z,73.25
2017-04-08T03:19:26.613Z,72.97
2017-04-08T03:19:52.711Z,73.16
2017-04-08T03:20:18.792Z,73.44
2017-04-08T03:20:44.897Z,73.44
2017-04-08T03:21:10.979Z,73.35
2017-04-08T03:21:37.083Z,73.54
2017-04-08T03:22:03.166Z,73.44
2017-04-08T03:22:29.270Z,73.44
2017-04-08T03:22:55.373Z,73.25
2017-04-08T03:23:21.489Z,73.25
2017-04-08T03:23:47.665Z,73.44
2017-04-08T03:24:13.770Z,73.07
2017-04-08T03:24:39.846Z,73.25
2017-04-08T03:25:05.929Z,73.35
2017-04-08T03:25:32.032Z,73.54
2017-04-08T03:25:58.117Z,73.83
2017-04-08T03:26:24.196Z,73.16
2017-04-08T03:26:50.301Z,73.16
2017-04-08T03:27:16.429Z,73.44
2017-04-08T03:27:42.537Z,73.63
2017-04-08T03:28:08.640Z,73.35
2017-04-08T03:28:34.744Z,73.25
2017-04-08T03:29:00.847Z,73.25
2017-04-08T03:29:26.953Z,73.25
2017-04-08T03:29:53.035Z,72.87
2017-04-08T03:30:19.141Z,73.35
2017-04-08T03:30:45.223Z,73.25
2017-04-08T03:31:11.328Z,73.07
2017-04-08T03:31:37.432Z,73.35
2017-04-08T03:32:03.539Z,73.25
2017-04-08T03:32:29.646Z,73.25
2017-04-08T03:32:55.742Z,73.25
2017-04-08T03:33:21.823Z,72.97
2017-04-08T03:33:47.905Z,73.25
2017-04-08T03:34:13.987Z,72.97
2017-04-08T03:34:40.111Z,73.35
2017-04-08T03:35:06.239Z,73.16
2017-04-08T03:35:32.322Z,73.25
2017-04-08T03:35:58.401Z,73.25
2017-04-08T03:36:24.483Z,72.97
2017-04-08T03:36:50.567Z,73.16
2017-04-08T03:37:16.647Z,73.25
2017-04-08T03:37:42.726Z,73.07
2017-04-08T03:38:08.808Z,73.35
2017-04-08T03:38:34.889Z,73.25
2017-04-08T03:39:00.993Z,73.44
2017-04-08T03:39:27.075Z,73.35
2017-04-08T03:39:53.154Z,72.97
2017-04-08T03:40:19.260Z,73.35
2017-04-08T03:40:45.338Z,73.35
2017-04-08T03:41:11.440Z,73.25
2017-04-08T03:41:37.523Z,73.35
2017-04-08T03:42:03.633Z,73.07
2017-04-08T03:42:29.732Z,73.44
2017-04-08T03:42:55.814Z,73.25
2017-04-08T03:43:21.896Z,73.07
2017-04-08T03:43:48.000Z,72.58
2017-04-08T03:44:14.122Z,72.78
2017-04-08T03:44:40.204Z,72.68
2017-04-08T03:45:06.287Z,72.68
2017-04-08T03:45:32.370Z,72.58
2017-04-08T03:45:58.451Z,72.58
2017-04-08T03:46:24.532Z,72.87
2017-04-08T03:46:50.613Z,73.25
2017-04-08T03:47:16.692Z,73.07
2017-04-08T03:47:42.777Z,73.16
2017-04-08T03:48:08.860Z,73.25
2017-04-08T03:48:34.966Z,73.16
2017-04-08T03:49:01.046Z,73.07
2017-04-08T03:49:27.127Z,73.07
2017-04-08T03:49:53.217Z,73.25
2017-04-08T03:50:19.320Z,73.25
2017-04-08T03:50:45.427Z,73.44
2017-04-08T03:51:11.529Z,73.25
2017-04-08T03:51:37.633Z,73.35
2017-04-08T03:52:03.715Z,72.78
2017-04-08T03:52:29.819Z,72.97
2017-04-08T03:52:55.923Z,72.97
2017-04-08T03:53:22.004Z,73.35
2017-04-08T03:53:48.089Z,73.35
2017-04-08T03:54:14.217Z,73.07
2017-04-08T03:54:40.320Z,73.07
2017-04-08T03:55:06.423Z,73.16
2017-04-08T03:55:32.527Z,73.25
2017-04-08T03:55:58.609Z,73.35
2017-04-08T03:56:24.712Z,73.16
2017-04-08T03:56:50.814Z,73.16
2017-04-08T03:57:16.919Z,72.58
2017-04-08T03:57:43.023Z,73.07
2017-04-08T03:58:09.135Z,72.68
2017-04-08T03:58:35.281Z,72.78
2017-04-08T03:59:01.386Z,72.58
2017-04-08T03:59:27.560Z,72.58
2017-04-08T03:59:53.666Z,73.25
2017-04-08T04:00:19.771Z,72.68
2017-04-08T04:00:45.896Z,72.68
2017-04-08T04:01:11.978Z,72.58
2017-04-08T04:01:38.060Z,73.16
2017-04-08T04:02:04.142Z,73.07
2017-04-08T04:02:30.223Z,73.16
2017-04-08T04:02:56.340Z,73.07
2017-04-08T04:03:22.466Z,72.97
2017-04-08T04:03:48.594Z,72.87
2017-04-08T04:04:14.746Z,73.07
2017-04-08T04:04:40.828Z,73.16
2017-04-08T04:05:06.931Z,73.07
2017-04-08T04:05:33.009Z,73.25
2017-04-08T04:05:59.114Z,73.07
2017-04-08T04:06:25.244Z,73.07
2017-04-08T04:06:51.353Z,73.25
2017-04-08T04:07:17.433Z,72.87
2017-04-08T04:07:43.512Z,73.16
2017-04-08T04:08:09.618Z,72.78
2017-04-08T04:08:35.790Z,73.35
2017-04-08T04:09:01.896Z,73.25
2017-04-08T04:09:27.999Z,72.68
2017-04-08T04:09:54.102Z,72.49
2017-04-08T04:10:20.207Z,72.68
2017-04-08T04:10:46.290Z,73.25
2017-04-08T04:11:12.396Z,72.97
2017-04-08T04:11:38.477Z,73.25
2017-04-08T04:12:04.582Z,73.54
2017-04-08T04:12:30.664Z,72.97
2017-04-08T04:12:56.747Z,73.25
2017-04-08T04:13:22.851Z,73.44
2017-04-08T04:13:48.932Z,73.63
2017-04-08T04:14:15.013Z,73.79
2017-04-08T04:14:41.092Z,73.83
2017-04-08T04:15:07.175Z,73.44
2017-04-08T04:15:33.300Z,73.63
2017-04-08T04:15:59.381Z,74.17
2017-04-08T04:16:25.462Z,74.08
2017-04-08T04:16:51.565Z,73.6
2017-04-08T04:17:17.645Z,73.63
2017-04-08T04:17:43.752Z,73.41
2017-04-08T04:18:09.841Z,74.08
2017-04-08T04:18:35.921Z,73.98
2017-04-08T04:19:02.003Z,74.02
2017-04-08T04:19:28.081Z,74.27
2017-04-08T04:19:54.162Z,74.27
2017-04-08T04:20:20.242Z,74.02
2017-04-08T04:20:46.327Z,74.11
2017-04-08T04:21:12.408Z,73.73
2017-04-08T04:21:38.511Z,73.63
2017-04-08T04:22:04.590Z,73.98
2017-04-08T04:22:30.693Z,74.11
2017-04-08T04:22:56.822Z,74.21
2017-04-08T04:23:22.998Z,73.54
2017-04-08T04:23:49.096Z,73.25
2017-04-08T04:24:15.291Z,73.25
2017-04-08T04:24:41.370Z,73.54
2017-04-08T04:25:07.478Z,73.35
2017-04-08T04:25:33.559Z,73.25
2017-04-08T04:25:59.641Z,73.22
2017-04-08T04:26:25.745Z,73.25
2017-04-08T04:26:51.848Z,73.41
2017-04-08T04:27:17.952Z,73.79
2017-04-08T04:27:44.055Z,73.5
2017-04-08T04:28:10.206Z,73.88
2017-04-08T04:28:36.309Z,73.69
2017-04-08T04:29:02.439Z,73.88
2017-04-08T04:29:28.568Z,73.88
2017-04-08T04:29:54.723Z,74.08
2017-04-08T04:30:20.777Z,73.88
2017-04-08T04:30:46.857Z,73.98
2017-04-08T04:31:12.938Z,73.98
2017-04-08T04:31:39.045Z,73.6
2017-04-08T04:32:05.147Z,73.41
2017-04-08T04:32:31.249Z,73.5
2017-04-08T04:32:57.329Z,73.88
2017-04-08T04:33:23.417Z,73.98
2017-04-08T04:33:49.495Z,74.08
2017-04-08T04:34:15.576Z,74.08
2017-04-08T04:34:41.660Z,74.27
2017-04-08T04:35:07.739Z,73.88
2017-04-08T04:35:33.822Z,74.27
2017-04-08T04:35:59.924Z,74.27
2017-04-08T04:36:26.009Z,73.98
2017-04-08T04:36:52.088Z,74.08
2017-04-08T04:37:18.193Z,73.69
2017-04-08T04:37:44.273Z,73.98
2017-04-08T04:38:10.353Z,74.27
2017-04-08T04:38:36.457Z,73.69
2017-04-08T04:39:02.559Z,74.37
2017-04-08T04:39:28.641Z,74.37
2017-04-08T04:39:54.722Z,74.17
2017-04-08T04:40:20.804Z,74.37
2017-04-08T04:40:46.884Z,74.55
2017-04-08T04:41:12.965Z,74.65
2017-04-08T04:41:39.070Z,74.46
2017-04-08T04:42:05.172Z,74.55
2017-04-08T04:42:31.254Z,74.55
2017-04-08T04:42:57.338Z,74.55
2017-04-08T04:43:23.440Z,74.74
2017-04-08T04:43:49.524Z,74.27
2017-04-08T04:44:15.603Z,74.08
2017-04-08T04:44:41.688Z,74.27
2017-04-08T04:45:07.790Z,74.46
2017-04-08T04:45:33.870Z,74.37
2017-04-08T04:45:59.957Z,74.27
2017-04-08T04:46:26.054Z,74.37
2017-04-08T04:46:52.133Z,73.98
2017-04-08T04:47:18.216Z,73.79
2017-04-08T04:47:44.300Z,73.69
2017-04-08T04:48:10.380Z,74.27
2017-04-08T04:48:36.462Z,74.27
2017-04-08T04:49:02.539Z,74.17
2017-04-08T04:49:28.642Z,73.88
2017-04-08T04:49:54.751Z,74.27
2017-04-08T04:50:20.835Z,74.27
2017-04-08T04:50:46.916Z,74.37
2017-04-08T04:51:13.042Z,74.46
2017-04-08T04:51:39.123Z,74.55
2017-04-08T04:52:05.249Z,74.46
2017-04-08T04:52:31.351Z,74.27
2017-04-08T04:52:57.479Z,74.27
2017-04-08T04:53:23.629Z,74.27
2017-04-08T04:53:49.757Z,74.37
2017-04-08T04:54:15.839Z,74.27
2017-04-08T04:54:41.916Z,74.55
2017-04-08T04:55:08.027Z,74.55
2017-04-08T04:55:34.145Z,74.37
2017-04-08T04:56:00.249Z,74.55
2017-04-08T04:56:26.329Z,75.03
2017-04-08T04:56:52.436Z,74.74
2017-04-08T04:57:18.557Z,74.93
2017-04-08T04:57:44.661Z,74.84
2017-04-08T04:58:10.767Z,74.74
2017-04-08T04:58:36.923Z,74.84
2017-04-08T04:59:03.113Z,74.55
2017-04-08T04:59:29.218Z,74.55
2017-04-08T04:59:55.297Z,74.46
2017-04-08T05:00:21.379Z,74.65
2017-04-08T05:00:47.459Z,74.08
2017-04-08T05:01:13.562Z,74.27
2017-04-08T05:01:39.643Z,74.46
2017-04-08T05:02:05.726Z,74.74
2017-04-08T05:02:31.805Z,74.46
2017-04-08T05:02:57.914Z,74.46
2017-04-08T05:03:24.017Z,74.65
2017-04-08T05:03:50.144Z,74.55
2017-04-08T05:04:16.290Z,74.46
2017-04-08T05:04:42.395Z,74.08
2017-04-08T05:05:08.498Z,74.17
2017-04-08T05:05:34.580Z,74.08
2017-04-08T05:06:00.658Z,74.27
2017-04-08T05:06:26.741Z,74.37
2017-04-08T05:06:52.829Z,74.27
2017-04-08T05:07:18.902Z,74.17
2017-04-08T05:07:44.985Z,74.84
2017-04-08T05:08:11.092Z,74.65
2017-04-08T05:08:37.200Z,74.55
2017-04-08T05:09:03.282Z,74.37
2017-04-08T05:09:29.387Z,74.65
2017-04-08T05:09:55.513Z,74.84
2017-04-08T05:10:21.592Z,74.65
2017-04-08T05:10:47.677Z,74.65
2017-04-08T05:11:13.759Z,75.32
2017-04-08T05:11:39.839Z,75.22
2017-04-08T05:12:05.939Z,75.03
2017-04-08T05:12:32.042Z,74.65
2017-04-08T05:12:58.122Z,74.74
2017-04-08T05:13:24.202Z,74.46
2017-04-08T05:13:50.284Z,74.84
2017-04-08T05:14:16.365Z,74.93
2017-04-08T05:14:42.446Z,75.03
2017-04-08T05:15:08.569Z,74.74
2017-04-08T05:15:34.673Z,74.84
2017-04-08T05:16:00.755Z,74.55
2017-04-08T05:16:26.839Z,74.37
2017-04-08T05:16:52.918Z,74.17
2017-04-08T05:17:18.997Z,74.55
2017-04-08T05:17:45.076Z,74.08
2017-04-08T05:18:11.160Z,74.84
2017-04-08T05:18:37.240Z,74.84
2017-04-08T05:19:03.353Z,74.74
2017-04-08T05:19:29.455Z,74.08
2017-04-08T05:19:55.557Z,74.46
2017-04-08T05:20:21.710Z,74.74
2017-04-08T05:20:47.812Z,74.08
2017-04-08T05:21:13.895Z,74.27
2017-04-08T05:21:40.000Z,74.65
2017-04-08T05:22:06.080Z,74.55
2017-04-08T05:22:32.183Z,75.13
2017-04-08T05:22:58.288Z,75.42
2017-04-08T05:23:24.368Z,74.93
2017-04-08T05:23:50.520Z,75.03
2017-04-08T05:24:16.602Z,75.22
2017-04-08T05:24:42.708Z,75.22
2017-04-08T05:25:08.836Z,75.03
2017-04-08T05:25:34.915Z,75.32
2017-04-08T05:26:01.019Z,75.22
2017-04-08T05:26:27.104Z,75.32
2017-04-08T05:26:53.228Z,75.32
2017-04-08T05:27:19.310Z,75.22
2017-04-08T05:27:45.417Z,75.13
2017-04-08T05:28:11.567Z,75.22
2017-04-08T05:28:37.693Z,75.13
2017-04-08T05:29:03.821Z,74.84
2017-04-08T05:29:29.925Z,74.74
2017-04-08T05:29:56.027Z,74.84
2017-04-08T05:30:22.108Z,74.93
2017-04-08T05:30:48.190Z,74.65
2017-04-08T05:31:14.269Z,74.74
2017-04-08T05:31:40.351Z,74.65
2017-04-08T05:32:06.457Z,74.65
2017-04-08T05:32:32.573Z,74.74
2017-04-08T05:32:58.666Z,74.74
2017-04-08T05:33:24.747Z,74.65
2017-04-08T05:33:50.828Z,74.55
2017-04-08T05:34:16.911Z,74.74
2017-04-08T05:34:43.016Z,74.65
2017-04-08T05:35:09.096Z,74.08
2017-04-08T05:35:35.178Z,74.65
2017-04-08T05:36:01.258Z,74.65
2017-04-08T05:36:27.339Z,74.55
2017-04-08T05:36:53.421Z,74.55
2017-04-08T05:37:19.506Z,74.65
2017-04-08T05:37:45.587Z,74.49